Time;durP1;ratioP1;P1;durP2;ratioP2;P2;SDS_P1;SDS_P2;PMS_P1;PMS_P2;Temp;Humidity;BMP_temperature;BMP_pressure;BME280_temperature;BME280_humidity;BME280_pressure;Samples;Min_cycle;Max_cycle;Signal;HPM_P1;HPM_P2
2022/09/10 00:00:37;;;;;;;3.61;3.32;;;;;;;12.92;47.31;101911.50;462828;114;922961;-73
2022/09/10 00:01:40;;;;;;;3.46;3.16;;;;;;;12.91;47.35;101909.80;462998;114;922983;-73
2022/09/10 00:02:44;;;;;;;4.18;3.90;;;;;;;12.90;47.34;101908.14;463031;114;922534;-73
2022/09/10 00:03:50;;;;;;;3.38;3.08;;;;;;;12.89;47.46;101912.76;462927;114;922410;-73
2022/09/10 00:04:53;;;;;;;3.38;3.08;;;;;;;12.88;47.41;101911.06;462782;114;930492;-73
2022/09/10 00:05:56;;;;;;;4.09;3.28;;;;;;;12.87;47.42;101908.52;463064;114;922572;-75
2022/09/10 00:06:59;;;;;;;3.87;3.57;;;;;;;12.85;47.60;101902.38;463083;114;922872;-73
2022/09/10 00:08:03;;;;;;;3.42;3.17;;;;;;;12.83;47.51;101899.86;463070;114;923053;-73
2022/09/10 00:09:07;;;;;;;3.05;2.79;;;;;;;12.83;47.58;101904.48;462896;114;922536;-73
2022/09/10 00:10:11;;;;;;;3.21;2.95;;;;;;;12.82;47.64;101900.90;462916;114;930438;-73
2022/09/10 00:11:14;;;;;;;3.14;2.42;;;;;;;12.80;47.69;101900.23;463122;114;923248;-73
2022/09/10 00:12:17;;;;;;;3.56;3.19;;;;;;;12.79;47.70;101903.20;462744;114;922464;-73
2022/09/10 00:13:21;;;;;;;2.74;2.54;;;;;;;12.79;47.73;101897.72;457945;116;923119;-71
2022/09/10 00:14:24;;;;;;;2.75;2.51;;;;;;;12.79;47.76;101897.72;457833;116;930734;-74
2022/09/10 00:15:27;;;;;;;2.59;2.39;;;;;;;12.77;47.81;101886.11;460023;114;922535;-73
2022/09/10 00:16:31;;;;;;;2.72;2.51;;;;;;;12.76;47.81;101896.21;463690;114;922877;-71
2022/09/10 00:17:35;;;;;;;2.51;2.37;;;;;;;12.76;47.94;101895.36;463633;114;922546;-71
2022/09/10 00:18:39;;;;;;;2.42;2.22;;;;;;;12.73;47.88;101885.67;463534;114;930318;-72
2022/09/10 00:19:44;;;;;;;2.46;2.26;;;;;;;12.73;47.94;101895.77;462111;114;922475;-72
2022/09/10 00:20:54;;;;;;;2.69;2.49;;;;;;;12.71;48.01;101885.02;463637;114;922759;-72
2022/09/10 00:21:58;;;;;;;2.79;2.59;;;;;;;12.69;48.15;101895.30;463681;114;922462;-73
2022/09/10 00:23:01;;;;;;;3.16;2.87;;;;;;;12.68;48.07;101890.05;463582;114;923028;-71
2022/09/10 00:24:06;;;;;;;5.46;3.12;;;;;;;12.66;48.21;101890.23;463505;114;930842;-72
2022/09/10 00:25:09;;;;;;;2.92;2.72;;;;;;;12.65;48.15;101891.27;463531;114;930411;-73
2022/09/10 00:26:22;;;;;;;3.28;2.78;;;;;;;12.63;48.21;101882.40;463620;113;922483;-73
2022/09/10 00:27:25;;;;;;;2.87;2.62;;;;;;;12.64;48.31;101886.83;463530;114;922599;-73
2022/09/10 00:28:28;;;;;;;3.09;2.89;;;;;;;12.63;48.29;101881.55;463603;114;922429;-73
2022/09/10 00:29:31;;;;;;;3.49;2.99;;;;;;;12.61;48.34;101881.77;463331;114;930334;-73
2022/09/10 00:30:40;;;;;;;2.91;2.66;;;;;;;12.60;48.38;101887.42;457961;116;923015;-73
2022/09/10 00:31:43;;;;;;;3.13;2.74;;;;;;;12.59;48.38;101888.47;457060;116;922798;-73
2022/09/10 00:32:51;;;;;;;2.96;2.75;;;;;;;12.56;48.54;101884.25;457828;116;922916;-73
2022/09/10 00:33:53;;;;;;;3.51;3.17;;;;;;;12.56;48.61;101894.34;457519;114;922711;-73
2022/09/10 00:34:56;;;;;;;3.33;2.68;;;;;;;12.53;48.71;101885.47;457785;116;922995;-73
2022/09/10 00:35:59;;;;;;;3.36;2.96;;;;;;;12.53;48.79;101892.83;457925;116;922599;-72
2022/09/10 00:37:02;;;;;;;3.48;3.18;;;;;;;12.51;48.80;101901.23;457916;116;922538;-73
2022/09/10 00:38:07;;;;;;;2.96;2.76;;;;;;;12.52;48.81;101893.87;457859;116;923275;-73
2022/09/10 00:39:13;;;;;;;3.64;3.32;;;;;;;12.52;48.79;101896.60;457714;116;922543;-73
2022/09/10 00:40:17;;;;;;;3.38;3.09;;;;;;;12.50;48.83;101896.83;457752;114;922663;-73
2022/09/10 00:41:22;;;;;;;3.20;2.96;;;;;;;12.50;48.74;101898.70;457933;116;923146;-73
2022/09/10 00:42:25;;;;;;;2.94;2.74;;;;;;;12.50;48.72;101891.34;457822;116;922552;-73
2022/09/10 00:43:31;;;;;;;3.30;3.10;;;;;;;12.50;48.65;101887.77;457949;116;922847;-73
2022/09/10 00:44:41;;;;;;;3.06;2.79;;;;;;;12.48;48.66;101893.42;453162;116;923011;-73
2022/09/10 00:45:50;;;;;;;3.43;3.13;;;;;;;12.47;48.69;101894.45;457680;116;922878;-73
2022/09/10 00:46:55;;;;;;;3.49;3.21;;;;;;;12.45;48.70;101888.36;457737;116;922746;-72
2022/09/10 00:48:04;;;;;;;3.52;3.04;;;;;;;12.44;48.71;101886.66;457726;116;923029;-73
2022/09/10 00:49:19;;;;;;;3.22;2.86;;;;;;;12.42;48.75;101890.61;457806;116;922745;-73
2022/09/10 00:50:28;;;;;;;3.38;3.08;;;;;;;12.40;48.86;101889.98;445324;119;922799;-73
2022/09/10 00:51:34;;;;;;;3.49;3.06;;;;;;;12.38;48.94;101886.58;455955;116;922875;-72
2022/09/10 00:52:38;;;;;;;2.88;2.46;;;;;;;12.36;49.03;101888.66;457757;116;923088;-73
2022/09/10 00:53:42;;;;;;;3.23;2.97;;;;;;;12.33;49.08;101895.38;457657;116;922568;-72
2022/09/10 00:54:46;;;;;;;3.34;3.04;;;;;;;12.31;49.17;101896.59;457930;116;922786;-73
2022/09/10 00:55:52;;;;;;;2.87;2.68;;;;;;;12.30;49.24;101894.90;457851;116;922454;-73
2022/09/10 00:57:01;;;;;;;2.80;2.60;;;;;;;12.27;49.40;101893.41;457802;116;922698;-72
2022/09/10 00:58:08;;;;;;;4.06;3.33;;;;;;;12.27;49.43;101890.69;457706;116;922634;-73
2022/09/10 00:59:16;;;;;;;3.53;3.23;;;;;;;12.26;49.45;101896.34;457661;116;923092;-73
2022/09/10 01:00:21;;;;;;;3.44;3.16;;;;;;;12.25;49.45;101892.75;457710;116;923045;-72
2022/09/10 01:01:24;;;;;;;3.09;2.89;;;;;;;12.25;49.43;101897.38;457853;116;922893;-73
2022/09/10 01:02:27;;;;;;;3.62;3.31;;;;;;;12.25;49.41;101897.38;457949;116;923327;-73
2022/09/10 01:03:31;;;;;;;3.42;2.95;;;;;;;12.25;49.51;101894.64;457966;116;923087;-73
2022/09/10 01:04:34;;;;;;;3.25;3.04;;;;;;;12.24;49.42;101898.44;457817;116;922938;-73
2022/09/10 01:05:41;;;;;;;3.54;3.26;;;;;;;12.25;49.41;101894.64;457866;116;922979;-73
2022/09/10 01:06:45;;;;;;;3.73;3.43;;;;;;;12.23;49.49;101889.38;457758;116;923032;-73
2022/09/10 01:07:48;;;;;;;4.30;3.52;;;;;;;12.24;49.40;101891.05;457857;116;922635;-73
2022/09/10 01:08:51;;;;;;;3.76;3.25;;;;;;;12.25;49.35;101894.64;457967;116;922678;-72
2022/09/10 01:09:57;;;;;;;4.03;3.48;;;;;;;12.24;49.41;101885.58;457987;116;922660;-72
2022/09/10 01:11:40;;;;;;;3.92;3.36;;;;;;;12.24;49.37;101891.05;457781;116;923029;-73
2022/09/10 01:12:53;;;;;;;4.23;3.08;;;;;;;12.24;49.27;101888.31;433691;120;922643;-72
2022/09/10 01:14:03;;;;;;;3.86;3.56;;;;;;;12.22;49.28;101893.16;450370;116;923461;-72
2022/09/10 01:15:16;;;;;;;3.87;3.57;;;;;;;12.19;49.38;101893.52;455080;116;922663;-73
2022/09/10 01:16:57;;;;;;;4.43;3.41;;;;;;;12.17;49.30;101884.69;455067;116;930511;-73
2022/09/10 01:18:29;;;;;;;4.06;3.76;;;;;;;12.17;49.22;101892.05;455779;116;922643;-73
2022/09/10 01:19:56;;;;;;;3.27;2.97;;;;;;;12.15;49.22;101891.37;455306;116;923096;-73
2022/09/10 01:21:16;;;;;;;3.38;3.14;;;;;;;12.13;49.22;101895.14;455384;116;923086;-73
2022/09/10 01:22:29;;;;;;;4.69;3.20;;;;;;;12.10;49.29;101895.55;455360;116;922615;-72
2022/09/10 01:24:09;;;;;;;4.11;3.12;;;;;;;12.08;49.38;101897.61;455365;116;922531;-73
2022/09/10 01:25:34;;;;;;;4.20;3.71;;;;;;;12.07;49.33;101901.37;455337;116;922612;-72
2022/09/10 01:26:49;;;;;;;3.29;3.01;;;;;;;12.05;49.48;101902.62;441244;120;923185;-72
2022/09/10 01:27:55;;;;;;;4.19;3.74;;;;;;;12.03;49.45;101894.61;451570;116;922579;-72
2022/09/10 01:29:08;;;;;;;3.29;2.99;;;;;;;12.01;49.52;101898.59;455308;116;922490;-72
2022/09/10 01:30:24;;;;;;;3.13;2.85;;;;;;;11.98;49.53;101894.34;455322;116;922932;-72
2022/09/10 01:31:38;;;;;;;3.46;2.87;;;;;;;11.97;49.64;101892.64;461130;114;923137;-74
2022/09/10 01:32:59;;;;;;;3.06;2.86;;;;;;;11.96;49.87;101896.41;463358;114;923050;-74
2022/09/10 01:34:19;;;;;;;2.98;2.70;;;;;;;11.96;49.80;101895.59;463127;114;923907;-72
2022/09/10 01:35:38;;;;;;;2.74;2.54;;;;;;;11.96;49.80;101892.86;463330;114;930501;-73
2022/09/10 01:36:47;;;;;;;3.37;3.13;;;;;;;11.94;49.87;101895.77;463352;114;922532;-73
2022/09/10 01:37:53;;;;;;;2.86;2.66;;;;;;;11.93;49.90;101896.80;463394;114;922576;-73
2022/09/10 01:38:56;;;;;;;3.52;3.22;;;;;;;11.92;49.95;101891.52;463392;114;922588;-72
2022/09/10 01:40:02;;;;;;;2.87;2.58;;;;;;;11.91;49.95;101896.14;463572;114;922530;-72
2022/09/10 01:41:08;;;;;;;3.11;2.89;;;;;;;11.90;50.00;101891.73;463323;114;922973;-73
2022/09/10 01:42:14;;;;;;;3.66;3.36;;;;;;;11.90;49.97;101889.00;463269;114;923011;-73
2022/09/10 01:43:17;;;;;;;3.66;2.94;;;;;;;11.90;49.94;101896.36;463409;114;922951;-73
2022/09/10 01:44:42;;;;;;;3.26;2.97;;;;;;;11.89;49.94;101897.39;463289;114;923000;-72
2022/09/10 01:46:18;;;;;;;2.92;2.70;;;;;;;11.90;49.98;101896.36;463585;114;922510;-72
2022/09/10 01:47:27;;;;;;;3.49;3.09;;;;;;;11.89;49.97;101894.66;462798;114;922575;-73
2022/09/10 01:48:49;;;;;;;3.16;2.86;;;;;;;11.86;50.04;101895.87;463043;114;922725;-72
2022/09/10 01:49:57;;;;;;;2.95;2.71;;;;;;;11.83;50.02;101903.62;463403;114;922470;-73
2022/09/10 01:51:20;;;;;;;3.21;2.84;;;;;;;11.81;50.16;101897.48;462502;114;922818;-72
2022/09/10 01:52:50;;;;;;;2.87;2.52;;;;;;;11.79;50.08;101894.11;463428;114;922535;-73
2022/09/10 01:54:23;;;;;;;2.81;2.49;;;;;;;11.78;50.14;101897.87;462563;114;923040;-73
2022/09/10 01:55:40;;;;;;;3.06;2.61;;;;;;;11.75;50.18;101896.36;463371;114;922834;-74
2022/09/10 01:56:47;;;;;;;2.84;2.56;;;;;;;11.74;50.18;101896.58;463224;114;922973;-73
2022/09/10 01:58:00;;;;;;;2.81;2.56;;;;;;;11.71;50.25;101893.14;463400;114;922879;-72
2022/09/10 01:59:23;;;;;;;2.60;2.40;;;;;;;11.71;50.29;101892.28;456282;114;923443;-73
2022/09/10 02:00:27;;;;;;;2.60;2.40;;;;;;;11.70;50.49;101893.32;455332;116;922455;-73
2022/09/10 02:01:39;;;;;;;2.77;2.58;;;;;;;11.69;50.40;101887.00;455478;116;922942;-72
2022/09/10 02:02:49;;;;;;;2.63;2.44;;;;;;;11.69;50.44;101889.73;455306;116;922612;-73
2022/09/10 02:03:58;;;;;;;2.97;2.57;;;;;;;11.68;50.40;101884.48;455345;116;922612;-72
2022/09/10 02:05:05;;;;;;;3.06;2.79;;;;;;;11.68;50.38;101895.41;455404;116;922478;-72
2022/09/10 02:06:12;;;;;;;5.16;2.81;;;;;;;11.67;50.49;101894.56;455440;116;923089;-73
2022/09/10 02:07:21;;;;;;;3.21;2.95;;;;;;;11.66;50.51;101895.59;449364;118;922640;-73
2022/09/10 02:08:29;;;;;;;3.03;2.67;;;;;;;11.66;50.44;101894.75;450182;116;923023;-72
2022/09/10 02:09:33;;;;;;;2.98;2.78;;;;;;;11.65;50.46;101902.09;455024;116;922557;-73
2022/09/10 02:10:52;;;;;;;2.97;2.76;;;;;;;11.65;50.47;101890.31;455502;116;922605;-72
2022/09/10 02:11:57;;;;;;;4.24;2.80;;;;;;;11.64;50.52;101896.80;454893;116;922748;-73
2022/09/10 02:13:19;;;;;;;3.29;3.01;;;;;;;11.64;50.50;101894.92;457113;114;922905;-73
2022/09/10 02:14:40;;;;;;;3.34;3.07;;;;;;;11.62;50.53;101885.24;462877;114;922927;-73
2022/09/10 02:16:07;;;;;;;3.92;3.31;;;;;;;11.60;50.50;101892.77;443998;119;923282;-73
2022/09/10 02:17:12;;;;;;;4.08;3.20;;;;;;;11.58;50.53;101887.48;444335;119;923296;-73
2022/09/10 02:18:15;;;;;;;3.69;3.36;;;;;;;11.58;50.63;101897.56;444511;119;923140;-73
2022/09/10 02:19:18;;;;;;;3.85;3.47;;;;;;;11.58;50.51;101892.09;444472;119;923225;-73
2022/09/10 02:20:23;;;;;;;3.99;3.68;;;;;;;11.59;50.51;101896.53;444283;119;923037;-74
2022/09/10 02:21:27;;;;;;;3.44;3.23;;;;;;;11.61;50.51;101902.66;444421;119;922723;-73
2022/09/10 02:22:35;;;;;;;3.19;2.99;;;;;;;11.61;50.44;101891.73;453384;117;930620;-73
2022/09/10 02:23:47;;;;;;;3.02;2.79;;;;;;;11.63;50.47;101887.76;454542;114;922960;-73
2022/09/10 02:24:51;;;;;;;3.77;3.47;;;;;;;11.64;50.40;101886.73;462842;114;922586;-73
2022/09/10 02:25:54;;;;;;;4.45;3.21;;;;;;;11.65;50.39;101885.70;462959;114;922567;-73
2022/09/10 02:26:59;;;;;;;3.67;3.41;;;;;;;11.66;50.45;101889.28;462493;114;930972;-73
2022/09/10 02:28:04;;;;;;;4.90;3.86;;;;;;;11.66;50.32;101889.28;462971;114;922504;-73
2022/09/10 02:29:09;;;;;;;3.09;2.79;;;;;;;11.67;50.39;101894.56;462793;114;922552;-73
2022/09/10 02:30:15;;;;;;;3.76;3.46;;;;;;;11.67;50.28;101901.91;462766;114;922501;-73
2022/09/10 02:31:18;;;;;;;3.59;3.30;;;;;;;11.68;50.22;101901.73;467634;112;923166;-73
2022/09/10 02:32:22;;;;;;;3.53;3.22;;;;;;;11.69;50.27;101903.40;469135;112;922652;-73
2022/09/10 02:33:27;;;;;;;3.52;3.24;;;;;;;11.70;50.17;101901.52;462881;114;922510;-73
2022/09/10 02:34:31;;;;;;;3.89;3.05;;;;;;;11.70;50.17;101885.97;457912;115;922888;-73
2022/09/10 02:35:35;;;;;;;4.01;3.32;;;;;;;11.73;50.25;101895.72;458672;113;922609;-73
2022/09/10 02:36:39;;;;;;;3.48;3.21;;;;;;;11.75;50.09;101900.97;466939;113;923674;-73
2022/09/10 02:37:42;;;;;;;3.72;3.42;;;;;;;11.77;50.18;101904.37;466909;113;922532;-73
2022/09/10 02:38:46;;;;;;;3.38;3.08;;;;;;;11.77;50.09;101904.37;466712;113;922470;-73
2022/09/10 02:39:49;;;;;;;3.40;3.09;;;;;;;11.78;50.06;101906.08;466990;113;922611;-73
2022/09/10 02:40:54;;;;;;;3.36;3.06;;;;;;;11.78;50.04;101901.45;466899;113;922966;-73
2022/09/10 02:41:59;;;;;;;3.67;3.34;;;;;;;11.79;50.03;101907.78;466765;113;922594;-73
2022/09/10 02:43:03;;;;;;;3.84;3.53;;;;;;;11.79;49.99;101910.51;466862;113;923162;-73
2022/09/10 02:44:07;;;;;;;3.71;3.42;;;;;;;11.81;49.94;101908.41;466779;113;922929;-73
2022/09/10 02:45:13;;;;;;;3.18;2.96;;;;;;;11.80;50.03;101904.02;466753;113;922600;-71
2022/09/10 02:46:17;;;;;;;3.82;3.21;;;;;;;11.80;49.88;101910.30;466812;113;922573;-73
2022/09/10 02:47:20;;;;;;;3.08;2.88;;;;;;;11.81;49.87;101911.99;466948;113;922574;-73
2022/09/10 02:48:26;;;;;;;3.47;3.21;;;;;;;11.81;49.93;101914.73;466923;113;922529;-73
2022/09/10 02:49:33;;;;;;;3.53;3.23;;;;;;;11.82;49.85;101908.23;466694;113;922644;-72
2022/09/10 02:50:36;;;;;;;3.66;3.35;;;;;;;11.82;49.84;101908.23;466790;113;922534;-73
2022/09/10 02:51:41;;;;;;;3.41;3.21;;;;;;;11.84;49.83;101913.52;458171;115;923122;-73
2022/09/10 02:52:45;;;;;;;3.20;2.91;;;;;;;11.85;49.77;101905.13;458535;113;922591;-72
2022/09/10 02:53:48;;;;;;;3.55;3.23;;;;;;;11.85;49.77;101905.13;466707;113;930649;-73
2022/09/10 02:54:51;;;;;;;3.32;2.86;;;;;;;11.86;49.80;101908.69;466894;113;922586;-73
2022/09/10 02:55:54;;;;;;;3.92;3.31;;;;;;;11.87;49.79;101913.97;466958;113;922837;-73
2022/09/10 02:56:57;;;;;;;3.94;3.20;;;;;;;11.87;49.76;101922.17;466949;113;922487;-73
2022/09/10 02:58:00;;;;;;;3.43;2.96;;;;;;;11.88;49.72;101923.02;466983;113;922402;-72
2022/09/10 02:59:03;;;;;;;3.62;3.33;;;;;;;11.89;49.70;101921.98;463884;113;922990;-73
2022/09/10 03:00:08;;;;;;;3.36;3.12;;;;;;;11.89;49.69;101911.05;462993;114;923030;-73
2022/09/10 03:01:15;;;;;;;3.38;2.95;;;;;;;11.89;49.69;101922.83;462974;114;922870;-73
2022/09/10 03:02:19;;;;;;;3.50;2.98;;;;;;;11.89;49.80;101911.91;462917;114;922641;-73
2022/09/10 03:03:22;;;;;;;3.58;3.20;;;;;;;11.89;49.65;101920.10;463042;114;923012;-72
2022/09/10 03:04:25;;;;;;;3.98;3.58;;;;;;;11.90;49.63;101916.34;463117;114;922458;-73
2022/09/10 03:05:28;;;;;;;3.70;3.20;;;;;;;11.91;49.63;101909.80;463068;114;922460;-73
2022/09/10 03:06:33;;;;;;;3.39;3.12;;;;;;;11.92;49.59;101916.12;462924;114;922856;-73
2022/09/10 03:07:35;;;;;;;3.51;3.13;;;;;;;11.92;49.61;101918.86;463080;114;922443;-73
2022/09/10 03:08:38;;;;;;;3.74;3.37;;;;;;;11.92;49.61;101913.39;463068;114;922600;-73
2022/09/10 03:09:42;;;;;;;3.67;3.34;;;;;;;11.93;49.58;101920.55;463070;114;922527;-73
2022/09/10 03:10:46;;;;;;;3.85;3.44;;;;;;;11.92;49.68;101925.17;462947;114;923081;-73
2022/09/10 03:11:50;;;;;;;4.11;3.81;;;;;;;11.92;49.49;101929.79;462989;114;922606;-73
2022/09/10 03:12:53;;;;;;;5.21;3.90;;;;;;;11.92;49.49;101925.17;462979;114;922487;-74
2022/09/10 03:13:56;;;;;;;4.39;3.69;;;;;;;11.91;49.51;101926.20;463604;113;922874;-73
2022/09/10 03:14:59;;;;;;;4.46;3.92;;;;;;;11.91;49.47;101933.59;464540;114;922501;-73
2022/09/10 03:16:02;;;;;;;4.11;3.81;;;;;;;11.90;49.51;101932.73;472370;112;922429;-73
2022/09/10 03:17:06;;;;;;;4.02;3.65;;;;;;;11.89;49.55;101928.30;472807;112;922484;-74
2022/09/10 03:18:09;;;;;;;3.96;3.62;;;;;;;11.90;49.57;101926.42;463959;114;922620;-72
2022/09/10 03:19:13;;;;;;;4.45;3.89;;;;;;;11.89;49.64;101925.56;464216;112;922658;-72
2022/09/10 03:20:17;;;;;;;4.12;3.82;;;;;;;11.89;49.54;101925.56;472791;112;922996;-71
2022/09/10 03:21:23;;;;;;;4.47;4.11;;;;;;;11.91;49.66;101930.85;472837;112;922518;-73
2022/09/10 03:22:27;;;;;;;4.47;4.07;;;;;;;11.90;49.68;101927.27;472683;112;922585;-72
2022/09/10 03:23:30;;;;;;;4.64;4.24;;;;;;;11.90;49.54;101927.27;472811;112;922512;-72
2022/09/10 03:24:33;;;;;;;4.06;3.70;;;;;;;11.91;49.53;101923.47;472892;112;923038;-73
2022/09/10 03:25:36;;;;;;;4.94;4.48;;;;;;;11.92;49.54;101927.91;472896;112;922470;-73
2022/09/10 03:26:40;;;;;;;4.99;4.54;;;;;;;11.91;49.63;101923.47;472839;112;922998;-72
2022/09/10 03:27:43;;;;;;;5.18;4.54;;;;;;;11.91;49.52;101923.47;472814;112;930488;-73
2022/09/10 03:28:47;;;;;;;4.51;4.21;;;;;;;11.92;49.54;101914.23;469161;112;922618;-73
2022/09/10 03:29:50;;;;;;;4.88;4.48;;;;;;;11.92;49.55;101914.23;464493;114;922611;-73
2022/09/10 03:30:54;;;;;;;4.86;4.21;;;;;;;11.91;49.58;101911.72;464457;113;922481;-73
2022/09/10 03:31:57;;;;;;;4.69;3.92;;;;;;;11.90;49.62;101910.88;464458;114;930441;-73
2022/09/10 03:33:01;;;;;;;4.52;4.22;;;;;;;11.90;49.62;101916.34;464572;114;922785;-73
2022/09/10 03:34:05;;;;;;;4.71;4.34;;;;;;;11.91;49.72;101911.72;464375;112;922527;-73
2022/09/10 03:35:09;;;;;;;4.23;3.93;;;;;;;11.91;49.61;101908.98;464531;114;922625;-73
2022/09/10 03:36:13;;;;;;;5.23;3.87;;;;;;;11.89;49.62;101922.83;464372;114;922524;-73
2022/09/10 03:37:18;;;;;;;4.21;3.89;;;;;;;11.89;49.61;101920.10;464381;114;922960;-73
2022/09/10 03:38:22;;;;;;;4.47;3.96;;;;;;;11.90;49.72;101920.95;464516;114;930538;-73
2022/09/10 03:39:25;;;;;;;4.21;3.72;;;;;;;11.89;49.60;101917.37;464460;114;922480;-72
2022/09/10 03:40:28;;;;;;;4.34;3.94;;;;;;;11.89;49.63;101925.56;464528;114;922834;-73
2022/09/10 03:41:31;;;;;;;4.21;3.81;;;;;;;11.90;49.65;101926.42;464589;114;922602;-73
2022/09/10 03:42:35;;;;;;;4.08;3.55;;;;;;;11.89;49.64;101928.30;464556;114;922521;-73
2022/09/10 03:43:37;;;;;;;4.08;3.64;;;;;;;11.90;49.64;101934.62;464639;114;922699;-73
2022/09/10 03:44:42;;;;;;;3.81;3.48;;;;;;;11.90;49.71;101927.27;464369;114;922813;-72
2022/09/10 03:45:48;;;;;;;4.14;3.59;;;;;;;11.89;49.65;101925.56;464611;114;922751;-73
2022/09/10 03:46:51;;;;;;;3.59;3.29;;;;;;;11.89;49.58;101928.30;464415;114;922522;-73
2022/09/10 03:47:54;;;;;;;3.69;3.35;;;;;;;11.89;49.70;101930.19;464522;114;922495;-73
2022/09/10 03:49:01;;;;;;;3.78;3.44;;;;;;;11.90;49.57;101937.35;464557;114;922905;-73
2022/09/10 03:50:04;;;;;;;3.85;3.48;;;;;;;11.89;49.58;101944.70;464373;114;922978;-72
2022/09/10 03:51:09;;;;;;;3.78;3.45;;;;;;;11.89;49.56;101935.65;464525;114;922593;-72
2022/09/10 03:52:12;;;;;;;4.56;3.89;;;;;;;11.89;49.56;101941.12;464408;114;922799;-73
2022/09/10 03:53:17;;;;;;;4.09;3.76;;;;;;;11.88;49.54;101940.27;455814;116;922550;-73
2022/09/10 03:54:21;;;;;;;4.06;3.38;;;;;;;11.88;49.63;101939.41;456200;114;930533;-73
2022/09/10 03:55:24;;;;;;;3.86;3.49;;;;;;;11.86;49.63;101939.59;464428;114;930545;-72
2022/09/10 03:56:27;;;;;;;3.47;3.17;;;;;;;11.85;49.63;101935.20;464454;114;930541;-74
2022/09/10 03:57:30;;;;;;;4.39;3.69;;;;;;;11.83;49.70;101931.80;464523;114;931039;-73
2022/09/10 03:58:34;;;;;;;3.81;3.48;;;;;;;11.81;49.64;101933.00;464487;114;923032;-74
2022/09/10 03:59:40;;;;;;;3.94;3.41;;;;;;;11.81;49.68;101938.47;455713;116;923073;-72
2022/09/10 04:00:42;;;;;;;5.01;3.91;;;;;;;11.79;49.74;101935.95;456223;114;930657;-73
2022/09/10 04:01:46;;;;;;;4.01;3.30;;;;;;;11.79;49.78;101929.64;464567;114;922486;-72
2022/09/10 04:02:49;;;;;;;5.42;3.69;;;;;;;11.78;49.70;101934.25;464587;114;922728;-72
2022/09/10 04:03:56;;;;;;;4.07;3.74;;;;;;;11.77;49.68;101921.63;464496;114;922954;-73
2022/09/10 04:05:01;;;;;;;4.86;3.27;;;;;;;11.76;49.72;101922.65;464310;114;930524;-72
2022/09/10 04:06:06;;;;;;;3.62;3.33;;;;;;;11.75;49.75;101928.30;464572;114;922563;-72
2022/09/10 04:07:10;;;;;;;4.54;4.11;;;;;;;11.75;49.73;101934.61;464336;114;922896;-72
2022/09/10 04:08:14;;;;;;;4.28;3.75;;;;;;;11.74;49.74;101932.09;464455;114;922840;-73
2022/09/10 04:09:17;;;;;;;4.71;4.10;;;;;;;11.74;49.81;101940.29;464407;114;931137;-73
2022/09/10 04:10:20;;;;;;;4.33;3.66;;;;;;;11.72;49.81;101940.44;464459;114;922993;-73
2022/09/10 04:11:26;;;;;;;3.99;3.69;;;;;;;11.70;49.83;101943.35;464516;114;930463;-72
2022/09/10 04:12:29;;;;;;;4.08;3.80;;;;;;;11.70;49.95;101948.81;464316;114;922601;-72
2022/09/10 04:13:32;;;;;;;3.69;3.38;;;;;;;11.69;49.84;101941.65;464575;114;922856;-72
2022/09/10 04:14:36;;;;;;;6.82;5.21;;;;;;;11.67;49.93;101940.16;463415;114;923081;-72
2022/09/10 04:15:41;;;;;;;6.33;5.12;;;;;;;11.66;49.92;101935.73;467343;112;922520;-72
2022/09/10 04:16:44;;;;;;;7.12;6.52;;;;;;;11.65;49.97;101940.34;471097;112;922505;-72
2022/09/10 04:17:50;;;;;;;6.81;6.21;;;;;;;11.63;50.00;101944.31;471067;112;923294;-73
2022/09/10 04:18:55;;;;;;;5.76;5.26;;;;;;;11.62;50.13;101939.88;471084;112;923153;-73
2022/09/10 04:19:58;;;;;;;6.15;5.47;;;;;;;11.62;50.10;101942.61;471300;112;923110;-73
2022/09/10 04:21:01;;;;;;;5.94;4.96;;;;;;;11.61;50.12;101941.77;471330;112;922770;-73
2022/09/10 04:22:04;;;;;;;5.43;4.87;;;;;;;11.61;50.16;101938.17;471383;112;922667;-73
2022/09/10 04:23:07;;;;;;;5.53;4.87;;;;;;;11.60;50.20;101941.94;471336;112;923040;-73
2022/09/10 04:24:12;;;;;;;6.03;5.23;;;;;;;11.60;50.23;101941.94;471072;112;922804;-72
2022/09/10 04:25:16;;;;;;;5.30;4.78;;;;;;;11.59;50.25;101948.44;465626;112;922539;-73
2022/09/10 04:26:19;;;;;;;5.65;5.13;;;;;;;11.58;50.41;101939.39;462997;114;922466;-72
2022/09/10 04:27:25;;;;;;;5.87;5.36;;;;;;;11.59;50.35;101945.70;462930;114;923105;-73
2022/09/10 04:28:29;;;;;;;5.91;5.19;;;;;;;11.59;50.40;101943.82;462884;114;930445;-73
2022/09/10 04:29:32;;;;;;;6.47;5.47;;;;;;;11.60;50.43;101947.41;462804;113;922918;-73
2022/09/10 04:30:36;;;;;;;6.46;5.40;;;;;;;11.60;50.46;101942.80;453917;116;922572;-73
2022/09/10 04:31:40;;;;;;;7.54;5.87;;;;;;;11.59;50.47;101937.51;461681;112;922510;-73
2022/09/10 04:32:45;;;;;;;7.73;6.93;;;;;;;11.59;50.50;101938.36;470800;112;923089;-73
2022/09/10 04:33:49;;;;;;;8.98;7.02;;;;;;;11.59;50.65;101942.97;469150;112;922502;-73
2022/09/10 04:34:54;;;;;;;7.86;6.73;;;;;;;11.60;50.57;101941.94;462670;114;922736;-73
2022/09/10 04:35:59;;;;;;;7.52;6.83;;;;;;;11.59;50.57;101945.70;463074;114;922519;-73
2022/09/10 04:37:02;;;;;;;7.84;7.17;;;;;;;11.58;50.73;101949.47;462882;114;923002;-74
2022/09/10 04:38:06;;;;;;;7.59;6.94;;;;;;;11.59;50.66;101946.55;462999;114;922486;-73
2022/09/10 04:39:13;;;;;;;7.83;6.97;;;;;;;11.59;50.67;101951.17;462788;114;923111;-72
2022/09/10 04:40:17;;;;;;;7.13;6.48;;;;;;;11.59;50.75;101952.02;462888;114;922988;-72
2022/09/10 04:41:20;;;;;;;6.98;6.45;;;;;;;11.61;50.74;101954.57;463068;114;922698;-72
2022/09/10 04:42:23;;;;;;;7.39;6.78;;;;;;;11.62;50.78;101948.08;463040;114;922523;-73
2022/09/10 04:43:28;;;;;;;7.00;6.30;;;;;;;11.63;50.77;101949.78;462869;114;922490;-73
2022/09/10 04:44:31;;;;;;;7.47;6.84;;;;;;;11.65;50.83;101951.27;462867;114;930555;-74
2022/09/10 04:45:34;;;;;;;7.33;6.66;;;;;;;11.67;50.81;101937.42;463117;114;922495;-72
2022/09/10 04:46:38;;;;;;;7.82;7.11;;;;;;;11.69;50.98;101947.11;463086;114;922486;-73
2022/09/10 04:47:42;;;;;;;8.31;6.95;;;;;;;11.71;51.01;101941.47;462720;114;922456;-73
2022/09/10 04:48:46;;;;;;;8.13;7.41;;;;;;;11.72;50.92;101943.17;456263;116;923084;-73
2022/09/10 04:49:51;;;;;;;7.64;6.76;;;;;;;11.74;50.94;101930.21;456526;114;922828;-73
2022/09/10 04:50:55;;;;;;;8.78;7.77;;;;;;;11.76;51.01;101938.20;462994;114;923023;-73
2022/09/10 04:52:01;;;;;;;7.67;7.01;;;;;;;11.78;50.93;101945.18;460705;114;922530;-73
2022/09/10 04:53:04;;;;;;;8.03;7.25;;;;;;;11.79;50.96;101935.10;462954;114;922787;-73
2022/09/10 04:54:07;;;;;;;8.82;8.05;;;;;;;11.81;50.98;101941.20;462956;114;930535;-73
2022/09/10 04:55:12;;;;;;;7.64;6.94;;;;;;;11.81;51.00;101942.05;462862;114;922457;-73
2022/09/10 04:56:16;;;;;;;7.01;6.41;;;;;;;11.84;51.06;101947.16;462987;114;922522;-73
2022/09/10 04:57:19;;;;;;;7.29;6.67;;;;;;;11.85;51.04;101943.39;463023;114;922943;-73
2022/09/10 04:58:22;;;;;;;6.76;5.92;;;;;;;11.85;51.03;101935.20;462909;114;930511;-74
2022/09/10 04:59:26;;;;;;;6.84;6.31;;;;;;;11.87;51.14;101941.30;462944;114;930456;-72
2022/09/10 05:00:30;;;;;;;6.49;5.88;;;;;;;11.89;51.17;101939.23;462931;114;922478;-72
2022/09/10 05:01:34;;;;;;;7.54;6.74;;;;;;;11.91;51.08;101947.25;462898;114;922990;-72
2022/09/10 05:02:37;;;;;;;6.81;6.31;;;;;;;11.92;51.02;101947.04;463002;114;923338;-73
2022/09/10 05:03:41;;;;;;;8.60;6.56;;;;;;;11.94;51.02;101949.59;462945;114;922516;-72
2022/09/10 05:04:44;;;;;;;8.49;7.79;;;;;;;11.96;51.00;101962.02;462853;114;930956;-72
2022/09/10 05:05:47;;;;;;;9.98;9.16;;;;;;;11.96;51.02;101956.55;463031;114;922571;-72